HKML

Malindi Airport

Malindi, Kenya
METAR HKML 210700Z 21010KT 9999 SCT022TCU SCT090 29/24 Q1012
Observed Flight Rules
Apr-21 @ 07:00 UTC (3 hours ago) Visual Flight Rules
Wind Visibility Clouds
210° at 10 knots 10,000+ meters
  • Scattered at 2,200' AGL
  • Scattered at 9,000' AGL
Temperatures Readings
Current 29°C / 84°F
Dewpoint 24°C / 75°F
Humidity 74%
Altimeter 29.88" Hg
Pressure 1012 hPa
Elevation 23
METAR HKML 210700Z 21010KT 9999 SCT022TCU SCT090 29/24 Q1012
Observed Flight Rules
Apr-21 @ 07:00 UTC
(3 hours ago)
VFR
Wind Visibility
210° at 10 knots 10,000+ meters
Clouds
  • Scattered at 2,200' AGL
  • Scattered at 9,000' AGL
Temperature Dewpoint
29°C / 84°F 24°C / 75°F
Humidity Altimeter Pressure
74% 29.88" Hg 1012 hPa